This is the latest recevied weather packets stored in our database for station/object N3FAA. If no packets are shown the sender has not sent any weather packets the latest 10 day(s).
| Time | Temp. | Humidity | Pressure | Rain* | Wind** | Luminosity | Snow |
|---|---|---|---|---|---|---|---|
| 1777736189 | 20° C | 38% | 1012.4 hPa | 0 mm | - | 333 W/m² | - |
| 1777735886 | 20° C | 40% | 1012.6 hPa | 0 mm | - | 318 W/m² | - |
| 1777735584 | 20° C | 38% | 1012.4 hPa | 0 mm | - | 302 W/m² | - |
| 1777735281 | 20° C | 38% | 1012.6 hPa | 0 mm | - | 311 W/m² | - |
| 1777734978 | 19.44° C | 39% | 1013 hPa | 0 mm | - | 298 W/m² | - |
| 1777734676 | 19.44° C | 40% | 1012.5 hPa | 0 mm | - | 283 W/m² | - |
| 1777734373 | 19.44° C | 40% | 1012.5 hPa | 0 mm | - | 267 W/m² | - |
| 1777734069 | 18.89° C | 43% | 1012.3 hPa | 0 mm | - | 243 W/m² | - |
| 1777733765 | 18.33° C | 44% | 1012.4 hPa | 0 mm | - | 205 W/m² | - |
| 1777733462 | 18.33° C | 43% | 1012.4 hPa | 0 mm | - | 180 W/m² | - |
| 1777733158 | 16.11° C | 50% | 1012.4 hPa | 0 mm | - | 160 W/m² | - |
| 1777732855 | 15.56° C | 50% | 1012.5 hPa | 0 mm | - | 144 W/m² | - |
| 1777732551 | 14.44° C | 52% | 1012.6 hPa | 0 mm | - | 147 W/m² | - |
| 1777732250 | 13.89° C | 53% | 1012.2 hPa | 0 mm | - | 137 W/m² | - |
| 1777731946 | 13.89° C | 54% | 1012.3 hPa | 0 mm | - | 126 W/m² | - |
| 1777731643 | 13.33° C | 55% | 1012.5 hPa | 0 mm | - | 113 W/m² | - |
| 1777731341 | 12.78° C | 56% | 1012.3 hPa | 0 mm | - | 73 W/m² | - |
| 1777731038 | 12.22° C | 58% | 1012.4 hPa | 0 mm | - | 65 W/m² | - |
| 1777730737 | 11.67° C | 59% | 1012.1 hPa | 0 mm | - | 59 W/m² | - |
| 1777730433 | 11.67° C | 60% | 1012.2 hPa | 0 mm | - | 54 W/m² | - |
| 1777730128 | 11.11° C | 61% | 1012 hPa | 0 mm | - | 49 W/m² | - |
| 1777729826 | 10.56° C | 62% | 1012.2 hPa | 0 mm | - | 44 W/m² | - |
| 1777729522 | 10.56° C | 62% | 1012.2 hPa | 0 mm | - | 40 W/m² | - |
| 1777729219 | 10.56° C | 62% | 1011.8 hPa | 0 mm | - | 34 W/m² | - |
| 1777728916 | 10.56° C | 63% | 1011.8 hPa | 0 mm | - | 29 W/m² | - |
* Rain latest hour (hover to see other rain measurements)
** Current wind speed in m/s (hover to see current wind gust speed)